Terminal Aerodrome Forecast
Issued by NWS

Home | Current Version | Previous Version | Text Only | Print | Product List | Glossary On
Versions: 1 2 3 4 5 6 7 8 9 10 11 12 13 14 15 16 17 18 19 20 21 22 23 24 25 26 27 28 29 30 31 32 33 34 35 36 37 38 39 40 41 42 43 44 45 46 47 48
000
FTUS43 KAPX 131408 AAA
TAFMBL
TAF AMD
KMBL 131408Z 1314/1412 00000KT 6SM BR OVC015
     FM131700 VRB04KT P6SM OVC014
     FM132200 25005KT P6SM OVC008
     FM140400 VRB03KT P6SM OVC012
     FM140900 VRB03KT P6SM OVC009=

USA.gov is the U.S. government's official web portal to all federal, state and local government web resources and services.